Time;durP1;ratioP1;P1;durP2;ratioP2;P2;SDS_P1;SDS_P2;PMS_P1;PMS_P2;Temp;Humidity;BMP_temperature;BMP_pressure;BME280_temperature;BME280_humidity;BME280_pressure;Samples;Min_cycle;Max_cycle;Signal;HPM_P1;HPM_P2
2022/07/09 00:02:12;;;;;;;11.20;6.83;;;;;;;;;;4957886;29;20492;-63
2022/07/09 00:04:39;;;;;;;7.50;6.40;;;;;;;;;;4957221;29;21024;-63
2022/07/09 00:07:06;;;;;;;8.60;7.00;;;;;;;;;;4957147;28;20443;-63
2022/07/09 00:09:35;;;;;;;10.93;6.30;;;;;;;;;;4957500;29;20809;-63
2022/07/09 00:12:02;;;;;;;8.93;7.23;;;;;;;;;;4957660;29;20453;-64
2022/07/09 00:14:30;;;;;;;10.90;7.00;;;;;;;;;;4957289;29;20451;-63
2022/07/09 00:16:57;;;;;;;9.50;7.13;;;;;;;;;;4957312;29;20478;-63
2022/07/09 00:19:24;;;;;;;9.07;7.70;;;;;;;;;;4957125;29;20439;-63
2022/07/09 00:21:51;;;;;;;8.30;7.50;;;;;;;;;;4957116;29;20518;-65
2022/07/09 00:24:19;;;;;;;10.77;7.27;;;;;;;;;;4956756;29;20455;-63
2022/07/09 00:26:47;;;;;;;9.80;7.07;;;;;;;;;;4957304;29;20533;-63
2022/07/09 00:29:14;;;;;;;11.33;6.80;;;;;;;;;;4956920;29;20537;-63
2022/07/09 00:31:42;;;;;;;10.43;7.93;;;;;;;;;;4957177;29;20465;-63
2022/07/09 00:34:09;;;;;;;9.10;7.67;;;;;;;;;;4956597;29;20538;-63
2022/07/09 00:36:36;;;;;;;8.60;7.90;;;;;;;;;;4956610;29;20453;-63
2022/07/09 00:39:03;;;;;;;8.67;7.83;;;;;;;;;;4956800;29;20497;-63
2022/07/09 00:41:30;;;;;;;11.63;7.53;;;;;;;;;;4956436;29;20486;-63
2022/07/09 00:43:59;;;;;;;11.93;7.40;;;;;;;;;;4956702;29;20437;-63
2022/07/09 00:46:26;;;;;;;9.53;6.90;;;;;;;;;;4957310;29;20451;-63
2022/07/09 00:48:53;;;;;;;8.20;7.40;;;;;;;;;;4956268;29;20460;-63
2022/07/09 00:51:21;;;;;;;9.13;6.97;;;;;;;;;;4956627;29;20534;-63
2022/07/09 00:53:50;;;;;;;9.50;8.07;;;;;;;;;;4956449;29;20457;-63
2022/07/09 00:56:17;;;;;;;8.50;7.70;;;;;;;;;;4956599;29;20452;-63
2022/07/09 00:58:45;;;;;;;8.10;7.23;;;;;;;;;;4956120;29;20456;-63
2022/07/09 01:01:13;;;;;;;11.53;7.77;;;;;;;;;;4956902;29;20534;-63
2022/07/09 01:03:41;;;;;;;8.93;8.03;;;;;;;;;;4956743;29;20448;-63
2022/07/09 01:06:08;;;;;;;9.03;8.03;;;;;;;;;;4956718;29;20446;-63
2022/07/09 01:08:35;;;;;;;8.70;7.10;;;;;;;;;;4956288;29;20543;-64
2022/07/09 01:11:03;;;;;;;10.30;7.80;;;;;;;;;;4956717;29;20453;-63
2022/07/09 01:13:30;;;;;;;11.17;8.13;;;;;;;;;;4955984;29;20537;-63
2022/07/09 01:15:57;;;;;;;10.47;8.27;;;;;;;;;;4956120;29;20439;-63
2022/07/09 01:18:26;;;;;;;12.20;8.27;;;;;;;;;;4955408;28;20538;-63
2022/07/09 01:20:54;;;;;;;11.63;8.40;;;;;;;;;;4956138;29;20814;-63
2022/07/09 01:23:22;;;;;;;10.83;7.73;;;;;;;;;;4956167;29;20575;-63
2022/07/09 01:25:49;;;;;;;10.37;8.30;;;;;;;;;;4955653;29;20987;-63
2022/07/09 01:28:16;;;;;;;10.67;8.07;;;;;;;;;;4955651;29;20941;-63
2022/07/09 01:30:44;;;;;;;8.40;7.63;;;;;;;;;;4956002;29;20449;-63
2022/07/09 01:33:12;;;;;;;12.73;8.83;;;;;;;;;;4955955;29;20451;-63
2022/07/09 01:35:40;;;;;;;10.70;9.37;;;;;;;;;;4955783;29;20446;-63
2022/07/09 01:38:08;;;;;;;13.67;8.97;;;;;;;;;;4956005;29;20806;-63
2022/07/09 01:40:35;;;;;;;15.10;9.57;;;;;;;;;;4955874;29;20839;-63
2022/07/09 01:43:03;;;;;;;11.80;9.10;;;;;;;;;;4956067;29;20481;-64
2022/07/09 01:45:30;;;;;;;15.13;9.93;;;;;;;;;;4955419;29;20457;-64
2022/07/09 01:47:57;;;;;;;13.90;9.83;;;;;;;;;;4955760;29;20444;-64
2022/07/09 01:50:24;;;;;;;13.77;10.03;;;;;;;;;;4955757;29;20559;-64
2022/07/09 01:52:52;;;;;;;13.37;9.60;;;;;;;;;;4955298;29;21039;-63
2022/07/09 01:55:20;;;;;;;12.20;9.57;;;;;;;;;;4955562;29;20486;-63
2022/07/09 01:57:47;;;;;;;16.30;10.37;;;;;;;;;;4955285;29;20453;-63
2022/07/09 02:00:16;;;;;;;12.13;10.73;;;;;;;;;;4955638;29;20442;-64
2022/07/09 02:02:43;;;;;;;13.83;10.90;;;;;;;;;;4955463;29;20569;-63
2022/07/09 02:05:10;;;;;;;14.00;10.97;;;;;;;;;;4955163;29;20607;-63
2022/07/09 02:07:37;;;;;;;17.47;10.50;;;;;;;;;;4955556;29;20806;-63
2022/07/09 02:10:05;;;;;;;10.83;9.70;;;;;;;;;;4955387;29;20465;-63
2022/07/09 02:12:33;;;;;;;14.10;11.20;;;;;;;;;;4955510;29;20901;-63
2022/07/09 02:15:00;;;;;;;14.10;10.30;;;;;;;;;;4955034;29;21016;-63
2022/07/09 02:17:28;;;;;;;18.90;12.67;;;;;;;;;;4955422;29;20442;-63
2022/07/09 02:19:55;;;;;;;11.13;10.10;;;;;;;;;;4955014;29;20441;-63
2022/07/09 02:22:22;;;;;;;10.70;9.20;;;;;;;;;;4955341;29;20837;-63
2022/07/09 02:24:49;;;;;;;14.60;10.17;;;;;;;;;;4954910;29;20464;-63
2022/07/09 02:27:16;;;;;;;13.17;10.87;;;;;;;;;;4955354;29;20446;-63
2022/07/09 02:29:45;;;;;;;18.27;10.27;;;;;;;;;;4956821;28;20446;-63
2022/07/09 02:32:12;;;;;;;16.10;11.60;;;;;;;;;;4959250;29;20455;-63
2022/07/09 02:34:40;;;;;;;16.93;10.00;;;;;;;;;;4959429;29;20456;-64
2022/07/09 02:37:07;;;;;;;17.07;10.77;;;;;;;;;;4958845;29;20933;-63
2022/07/09 02:39:34;;;;;;;13.53;10.13;;;;;;;;;;4958775;29;20931;-63
2022/07/09 02:42:02;;;;;;;10.83;9.73;;;;;;;;;;4958862;29;20482;-63
2022/07/09 02:44:29;;;;;;;16.30;10.80;;;;;;;;;;4958733;29;20519;-65
2022/07/09 02:46:59;;;;;;;12.20;9.67;;;;;;;;;;4958883;29;20555;-63
2022/07/09 02:49:26;;;;;;;12.07;10.23;;;;;;;;;;4958556;29;20483;-64
2022/07/09 02:51:54;;;;;;;15.17;10.20;;;;;;;;;;4958819;29;20533;-63
2022/07/09 02:54:21;;;;;;;19.80;11.00;;;;;;;;;;4958619;29;20921;-63
2022/07/09 02:56:49;;;;;;;11.77;9.60;;;;;;;;;;4958774;29;20527;-63
2022/07/09 02:59:16;;;;;;;11.10;9.17;;;;;;;;;;4959132;29;20444;-63
2022/07/09 03:01:43;;;;;;;14.33;9.47;;;;;;;;;;4958319;29;20452;-63
2022/07/09 03:04:11;;;;;;;14.27;10.47;;;;;;;;;;4958742;29;20988;-63
2022/07/09 03:06:39;;;;;;;11.87;9.20;;;;;;;;;;4958653;29;20596;-63
2022/07/09 03:09:07;;;;;;;11.77;10.67;;;;;;;;;;4958268;29;20442;-63
2022/07/09 03:11:34;;;;;;;11.70;9.53;;;;;;;;;;4958563;29;20451;-63
2022/07/09 03:14:01;;;;;;;10.87;9.40;;;;;;;;;;4958563;29;20456;-63
2022/07/09 03:16:28;;;;;;;13.43;9.97;;;;;;;;;;4958387;29;20791;-63
2022/07/09 03:18:56;;;;;;;13.33;9.90;;;;;;;;;;4958065;29;20533;-63
2022/07/09 03:21:24;;;;;;;22.17;12.27;;;;;;;;;;4958285;29;20451;-63
2022/07/09 03:23:51;;;;;;;13.00;10.47;;;;;;;;;;4958835;29;20609;-63
2022/07/09 03:26:18;;;;;;;15.23;10.47;;;;;;;;;;4958139;29;20452;-63
2022/07/09 03:28:46;;;;;;;15.37;11.10;;;;;;;;;;4957866;29;20450;-63
2022/07/09 03:31:13;;;;;;;12.67;11.27;;;;;;;;;;4958089;29;20462;-67
2022/07/09 03:33:40;;;;;;;15.77;10.80;;;;;;;;;;4958166;29;20495;-63
2022/07/09 03:36:09;;;;;;;13.17;9.73;;;;;;;;;;4958006;29;20454;-63
2022/07/09 03:38:38;;;;;;;15.83;10.80;;;;;;;;;;4958028;29;20473;-63
2022/07/09 03:41:05;;;;;;;16.67;9.87;;;;;;;;;;4957446;28;20536;-63
2022/07/09 03:43:32;;;;;;;12.57;11.13;;;;;;;;;;4957548;29;20576;-63
2022/07/09 03:46:00;;;;;;;11.57;9.53;;;;;;;;;;4957505;29;20452;-63
2022/07/09 03:48:27;;;;;;;12.53;10.10;;;;;;;;;;4958000;29;20452;-63
2022/07/09 03:50:54;;;;;;;12.77;10.43;;;;;;;;;;4957715;29;20529;-63
2022/07/09 03:53:21;;;;;;;11.60;9.83;;;;;;;;;;4956223;29;20452;-63
2022/07/09 03:55:50;;;;;;;11.33;9.30;;;;;;;;;;4956973;29;20485;-64
2022/07/09 03:58:17;;;;;;;13.07;9.77;;;;;;;;;;4957293;29;20446;-63
2022/07/09 04:00:44;;;;;;;14.63;10.10;;;;;;;;;;4957661;29;20446;-63
2022/07/09 04:03:11;;;;;;;12.37;9.60;;;;;;;;;;4957059;29;20593;-63
2022/07/09 04:05:39;;;;;;;15.57;9.60;;;;;;;;;;4957680;29;20479;-63
2022/07/09 04:08:06;;;;;;;11.87;9.20;;;;;;;;;;4957326;29;20482;-63
2022/07/09 04:10:33;;;;;;;9.90;8.90;;;;;;;;;;4957307;29;20451;-63
2022/07/09 04:13:02;;;;;;;11.47;9.70;;;;;;;;;;4957175;29;20457;-63
2022/07/09 04:15:29;;;;;;;19.57;9.90;;;;;;;;;;4957509;29;20802;-63
2022/07/09 04:17:56;;;;;;;14.80;9.83;;;;;;;;;;4957303;29;20801;-63
2022/07/09 04:20:25;;;;;;;21.03;9.90;;;;;;;;;;4957143;29;20543;-63
2022/07/09 04:22:52;;;;;;;10.07;9.07;;;;;;;;;;4956627;29;20691;-63
2022/07/09 04:25:21;;;;;;;11.20;9.47;;;;;;;;;;4957052;29;20456;-63
2022/07/09 04:27:48;;;;;;;13.77;9.90;;;;;;;;;;4957042;29;21029;-63
2022/07/09 04:30:17;;;;;;;12.80;8.50;;;;;;;;;;4956963;29;20453;-63
2022/07/09 04:32:44;;;;;;;13.73;8.90;;;;;;;;;;4956572;29;20488;-63
2022/07/09 04:35:12;;;;;;;12.93;8.10;;;;;;;;;;4956540;29;21033;-63
2022/07/09 04:37:39;;;;;;;8.67;7.40;;;;;;;;;;4956818;29;20447;-63
2022/07/09 04:40:07;;;;;;;15.37;8.20;;;;;;;;;;4956541;29;20456;-64
2022/07/09 04:42:34;;;;;;;11.03;8.30;;;;;;;;;;4956435;29;20449;-64
2022/07/09 04:45:01;;;;;;;12.10;7.87;;;;;;;;;;4956360;29;20444;-64
2022/07/09 04:47:29;;;;;;;15.63;8.00;;;;;;;;;;4956998;29;20448;-64
2022/07/09 04:49:57;;;;;;;9.63;8.03;;;;;;;;;;4956971;29;20485;-63
2022/07/09 04:52:26;;;;;;;14.23;8.90;;;;;;;;;;4956053;28;20461;-64
2022/07/09 04:54:54;;;;;;;10.27;8.00;;;;;;;;;;4956363;29;20983;-63
2022/07/09 04:57:21;;;;;;;20.57;9.33;;;;;;;;;;4956393;29;20539;-64
2022/07/09 04:59:48;;;;;;;12.63;9.27;;;;;;;;;;4956468;29;20530;-64
2022/07/09 05:02:15;;;;;;;11.63;10.00;;;;;;;;;;4956198;29;20450;-64
2022/07/09 05:04:45;;;;;;;15.60;10.40;;;;;;;;;;4956068;29;21000;-64
2022/07/09 05:07:12;;;;;;;12.93;9.13;;;;;;;;;;4955871;29;20499;-63
2022/07/09 05:09:40;;;;;;;14.90;10.30;;;;;;;;;;4956272;29;20459;-64
2022/07/09 05:12:08;;;;;;;14.17;10.53;;;;;;;;;;4956135;29;20450;-63
2022/07/09 05:14:35;;;;;;;18.07;10.77;;;;;;;;;;4956189;29;20465;-64
2022/07/09 05:17:02;;;;;;;12.43;11.07;;;;;;;;;;4956063;29;20501;-64
2022/07/09 05:19:30;;;;;;;15.87;10.87;;;;;;;;;;4955847;29;20447;-63
2022/07/09 05:21:58;;;;;;;12.47;11.30;;;;;;;;;;4955766;29;20962;-63
2022/07/09 05:24:25;;;;;;;14.73;12.00;;;;;;;;;;4955676;29;20986;-63
2022/07/09 05:26:53;;;;;;;11.37;10.17;;;;;;;;;;4956094;29;20537;-63
2022/07/09 05:29:22;;;;;;;16.83;12.07;;;;;;;;;;4955825;29;20798;-63
2022/07/09 05:31:49;;;;;;;19.97;12.90;;;;;;;;;;4956420;29;20455;-63
2022/07/09 05:34:17;;;;;;;16.00;11.40;;;;;;;;;;4955764;29;20452;-63
2022/07/09 05:36:44;;;;;;;14.90;12.03;;;;;;;;;;4955825;29;20537;-63
2022/07/09 05:39:13;;;;;;;18.50;12.13;;;;;;;;;;4955721;29;20897;-64
2022/07/09 05:41:40;;;;;;;15.23;10.90;;;;;;;;;;4955475;29;20453;-63
2022/07/09 05:44:07;;;;;;;15.27;12.27;;;;;;;;;;4955121;29;20494;-63
2022/07/09 05:46:34;;;;;;;22.60;11.03;;;;;;;;;;4955720;29;20443;-63
2022/07/09 05:49:02;;;;;;;15.27;12.37;;;;;;;;;;4955424;29;20453;-64
2022/07/09 05:51:29;;;;;;;15.33;12.10;;;;;;;;;;4955676;29;20543;-64
2022/07/09 05:53:56;;;;;;;21.07;12.70;;;;;;;;;;4954906;29;20533;-64
2022/07/09 05:56:25;;;;;;;19.57;12.90;;;;;;;;;;4955313;29;20436;-63
2022/07/09 05:58:52;;;;;;;17.37;12.30;;;;;;;;;;4955109;29;20525;-63
2022/07/09 06:01:20;;;;;;;14.10;11.43;;;;;;;;;;4955179;29;20907;-63
2022/07/09 06:03:47;;;;;;;15.23;12.43;;;;;;;;;;4954297;28;20484;-64
2022/07/09 06:06:14;;;;;;;13.23;11.20;;;;;;;;;;4955078;29;20450;-63
2022/07/09 06:08:42;;;;;;;15.80;11.43;;;;;;;;;;4955399;29;20818;-64
2022/07/09 06:11:09;;;;;;;13.83;12.07;;;;;;;;;;4955290;29;20473;-64
2022/07/09 06:13:37;;;;;;;12.97;11.53;;;;;;;;;;4955749;29;20454;-64
2022/07/09 06:16:05;;;;;;;14.60;11.30;;;;;;;;;;4955466;29;20963;-64
2022/07/09 06:18:32;;;;;;;12.57;10.83;;;;;;;;;;4955117;29;20453;-64
2022/07/09 06:21:01;;;;;;;11.67;10.17;;;;;;;;;;4954975;29;20451;-64
2022/07/09 06:23:28;;;;;;;12.73;9.50;;;;;;;;;;4954933;29;20490;-64
2022/07/09 06:25:55;;;;;;;11.43;9.43;;;;;;;;;;4955248;29;20859;-64
2022/07/09 06:28:22;;;;;;;11.07;9.40;;;;;;;;;;4955130;29;20445;-64
2022/07/09 06:30:51;;;;;;;11.87;10.13;;;;;;;;;;4955535;29;20455;-64
2022/07/09 06:33:19;;;;;;;12.33;9.57;;;;;;;;;;4955226;29;20454;-64
2022/07/09 06:35:46;;;;;;;9.40;8.50;;;;;;;;;;4955311;29;20473;-64
2022/07/09 06:38:13;;;;;;;10.57;9.47;;;;;;;;;;4955186;29;20542;-64
2022/07/09 06:40:40;;;;;;;13.97;8.97;;;;;;;;;;4955214;29;20862;-64
2022/07/09 06:43:09;;;;;;;16.40;9.70;;;;;;;;;;4955012;29;20525;-64
2022/07/09 06:45:36;;;;;;;9.63;7.70;;;;;;;;;;4955206;29;20453;-63
2022/07/09 06:48:05;;;;;;;9.80;8.23;;;;;;;;;;4954850;29;20699;-64
2022/07/09 06:50:32;;;;;;;8.67;7.77;;;;;;;;;;4955043;29;20459;-64
2022/07/09 06:52:59;;;;;;;9.40;7.40;;;;;;;;;;4955077;29;20463;-64
2022/07/09 06:55:28;;;;;;;12.87;7.77;;;;;;;;;;4954598;29;20874;-63
2022/07/09 06:57:55;;;;;;;12.03;8.13;;;;;;;;;;4955037;29;20454;-64
2022/07/09 07:00:23;;;;;;;8.93;6.90;;;;;;;;;;4955033;29;20479;-64
2022/07/09 07:02:50;;;;;;;8.10;6.47;;;;;;;;;;4955312;29;20452;-63
2022/07/09 07:05:19;;;;;;;9.27;6.30;;;;;;;;;;4954990;29;20917;-64
2022/07/09 07:07:46;;;;;;;12.10;8.63;;;;;;;;;;4955067;29;20438;-64
2022/07/09 07:10:13;;;;;;;7.90;6.30;;;;;;;;;;4954611;29;20443;-63
2022/07/09 07:12:41;;;;;;;6.97;5.83;;;;;;;;;;4954958;29;20447;-63
2022/07/09 07:15:09;;;;;;;6.80;5.87;;;;;;;;;;4953830;28;20956;-63
2022/07/09 07:17:36;;;;;;;8.17;6.13;;;;;;;;;;4957997;29;20967;-63
2022/07/09 07:20:03;;;;;;;9.37;6.40;;;;;;;;;;4958067;29;20451;-64
2022/07/09 07:22:32;;;;;;;9.03;5.87;;;;;;;;;;4957884;29;20489;-64
2022/07/09 07:24:59;;;;;;;6.90;5.83;;;;;;;;;;4958332;29;20490;-64
2022/07/09 07:27:26;;;;;;;8.57;4.90;;;;;;;;;;4957783;29;21026;-64
2022/07/09 07:29:53;;;;;;;6.07;4.70;;;;;;;;;;4957828;29;20814;-64
2022/07/09 07:32:20;;;;;;;9.50;5.10;;;;;;;;;;4958428;29;20443;-64
2022/07/09 07:34:48;;;;;;;7.27;4.90;;;;;;;;;;4957403;29;20535;-64
2022/07/09 07:37:15;;;;;;;6.47;4.77;;;;;;;;;;4957916;29;20535;-64
2022/07/09 07:39:44;;;;;;;6.60;4.30;;;;;;;;;;4957853;29;20879;-63
2022/07/09 07:42:11;;;;;;;6.40;4.43;;;;;;;;;;4957808;29;20534;-63
2022/07/09 07:44:38;;;;;;;4.80;3.30;;;;;;;;;;4957260;29;20487;-63
2022/07/09 07:47:05;;;;;;;5.23;4.53;;;;;;;;;;4957429;29;20459;-63
2022/07/09 07:49:32;;;;;;;3.70;3.30;;;;;;;;;;4957690;29;20444;-63
2022/07/09 07:52:00;;;;;;;5.07;4.40;;;;;;;;;;4957308;29;20539;-63
2022/07/09 07:54:27;;;;;;;5.70;4.47;;;;;;;;;;4957247;29;20499;-64
2022/07/09 07:56:56;;;;;;;6.33;4.20;;;;;;;;;;4957276;29;20454;-64
2022/07/09 07:59:23;;;;;;;6.20;4.80;;;;;;;;;;4957209;29;20484;-64
2022/07/09 08:01:50;;;;;;;5.10;4.00;;;;;;;;;;4957318;29;20453;-64
2022/07/09 08:04:17;;;;;;;3.83;3.47;;;;;;;;;;4957368;29;20483;-64
2022/07/09 08:06:44;;;;;;;4.60;3.70;;;;;;;;;;4957055;29;21033;-63
2022/07/09 08:09:12;;;;;;;3.97;3.43;;;;;;;;;;4956982;29;20536;-64
2022/07/09 08:11:39;;;;;;;4.50;3.10;;;;;;;;;;4957180;29;20445;-64
2022/07/09 08:14:08;;;;;;;5.90;2.73;;;;;;;;;;4956605;29;20537;-64
2022/07/09 08:16:36;;;;;;;2.40;2.27;;;;;;;;;;4956942;29;20451;-64
2022/07/09 08:19:03;;;;;;;2.73;2.53;;;;;;;;;;4956875;29;20456;-64
2022/07/09 08:21:30;;;;;;;3.37;3.17;;;;;;;;;;4957126;29;20782;-64
2022/07/09 08:24:00;;;;;;;2.60;2.40;;;;;;;;;;4957132;29;20527;-64
2022/07/09 08:26:27;;;;;;;4.10;2.60;;;;;;;;;;4956816;28;20543;-64
2022/07/09 08:28:55;;;;;;;4.37;2.40;;;;;;;;;;4956945;29;20926;-64
2022/07/09 08:31:24;;;;;;;4.43;2.50;;;;;;;;;;4957056;29;20440;-64
2022/07/09 08:33:51;;;;;;;3.10;2.70;;;;;;;;;;4956901;29;20480;-64
2022/07/09 08:36:19;;;;;;;2.53;2.20;;;;;;;;;;4956733;29;20457;-64
2022/07/09 08:38:46;;;;;;;4.07;2.70;;;;;;;;;;4957166;29;20449;-64
2022/07/09 08:41:15;;;;;;;2.50;2.30;;;;;;;;;;4956431;29;20449;-64
2022/07/09 08:43:43;;;;;;;3.33;2.23;;;;;;;;;;4956495;29;20445;-64
2022/07/09 08:46:11;;;;;;;3.17;2.10;;;;;;;;;;4956649;29;20539;-64
2022/07/09 08:48:39;;;;;;;2.63;2.00;;;;;;;;;;4956643;29;20548;-64
2022/07/09 08:51:07;;;;;;;2.17;1.97;;;;;;;;;;4956549;29;20886;-64
2022/07/09 08:53:34;;;;;;;2.43;2.20;;;;;;;;;;4956616;29;20547;-64
2022/07/09 08:56:01;;;;;;;4.27;2.77;;;;;;;;;;4956326;29;20478;-64
2022/07/09 08:58:29;;;;;;;2.90;2.50;;;;;;;;;;4956130;29;20537;-64
2022/07/09 09:00:58;;;;;;;4.47;2.20;;;;;;;;;;4956607;29;20512;-63
2022/07/09 09:03:25;;;;;;;2.50;2.30;;;;;;;;;;4956051;29;20533;-63
2022/07/09 09:06:04;;;;;;;2.87;2.67;;;;;;;;;;4956149;29;20492;-63
2022/07/09 09:08:35;;;;;;;2.73;2.30;;;;;;;;;;4956321;29;20485;-65
2022/07/09 09:11:02;;;;;;;2.80;2.20;;;;;;;;;;4956097;29;20450;-63
2022/07/09 09:13:29;;;;;;;2.40;2.00;;;;;;;;;;4955817;29;20998;-64
2022/07/09 09:16:06;;;;;;;1.67;1.57;;;;;;;;;;4955774;29;20529;-64
2022/07/09 09:18:35;;;;;;;1.90;1.80;;;;;;;;;;4956328;29;20802;-63
2022/07/09 09:21:05;;;;;;;2.20;2.00;;;;;;;;;;4955994;29;20456;-63
2022/07/09 09:23:40;;;;;;;2.30;2.10;;;;;;;;;;4955956;29;20859;-63
2022/07/09 09:26:15;;;;;;;4.03;2.47;;;;;;;;;;4955615;29;20466;-64
2022/07/09 09:28:49;;;;;;;2.00;1.80;;;;;;;;;;4955908;29;20533;-64
2022/07/09 09:31:23;;;;;;;2.03;1.93;;;;;;;;;;4955423;29;20450;-64
2022/07/09 09:33:50;;;;;;;1.93;1.83;;;;;;;;;;4955849;29;20508;-63
2022/07/09 09:36:32;;;;;;;1.97;1.87;;;;;;;;;;4955235;29;20951;-64
2022/07/09 09:39:09;;;;;;;3.97;2.20;;;;;;;;;;4954954;28;20450;-63
2022/07/09 09:41:36;;;;;;;1.80;1.70;;;;;;;;;;4955780;29;20433;-64
2022/07/09 09:44:08;;;;;;;10.73;3.13;;;;;;;;;;4955027;29;20450;-64
2022/07/09 09:46:36;;;;;;;5.60;2.37;;;;;;;;;;4955787;29;20441;-64
2022/07/09 09:49:05;;;;;;;3.07;2.07;;;;;;;;;;4955538;29;20533;-63
2022/07/09 09:51:35;;;;;;;2.57;2.17;;;;;;;;;;4955317;29;20947;-64
2022/07/09 09:54:03;;;;;;;3.70;2.80;;;;;;;;;;4955023;29;20505;-64
2022/07/09 09:56:30;;;;;;;4.13;2.10;;;;;;;;;;4955256;29;20465;-64
2022/07/09 09:58:58;;;;;;;2.23;2.10;;;;;;;;;;4955557;29;20456;-63
2022/07/09 10:01:26;;;;;;;3.50;2.50;;;;;;;;;;4955403;29;20452;-64
2022/07/09 10:03:55;;;;;;;5.27;2.13;;;;;;;;;;4955554;29;20449;-63
2022/07/09 10:06:22;;;;;;;4.33;2.50;;;;;;;;;;4954991;29;20474;-64
2022/07/09 10:08:51;;;;;;;3.77;2.00;;;;;;;;;;4955399;29;20440;-63
2022/07/09 10:11:18;;;;;;;6.03;2.50;;;;;;;;;;4955291;29;20457;-64
2022/07/09 10:13:55;;;;;;;2.40;2.20;;;;;;;;;;4955462;29;20898;-64
2022/07/09 10:16:33;;;;;;;2.30;2.20;;;;;;;;;;4955089;29;21010;-64
2022/07/09 10:19:01;;;;;;;2.70;2.50;;;;;;;;;;4955654;29;20433;-64
2022/07/09 10:21:35;;;;;;;4.77;2.67;;;;;;;;;;4954954;29;20533;-64
2022/07/09 10:24:03;;;;;;;2.70;2.50;;;;;;;;;;4955335;29;20469;-63
2022/07/09 10:26:46;;;;;;;2.20;2.00;;;;;;;;;;4954029;29;20482;-63
2022/07/09 10:29:20;;;;;;;3.50;3.20;;;;;;;;;;4954936;29;20423;-63
2022/07/09 10:31:48;;;;;;;2.60;2.40;;;;;;;;;;4954754;29;20962;-63
2022/07/09 10:34:23;;;;;;;5.07;3.30;;;;;;;;;;4955106;29;20528;-63
2022/07/09 10:36:58;;;;;;;2.63;2.47;;;;;;;;;;4954802;29;20441;-64
2022/07/09 10:39:26;;;;;;;2.80;2.60;;;;;;;;;;4954894;29;20438;-63
2022/07/09 10:42:00;;;;;;;3.20;3.00;;;;;;;;;;4954990;29;20456;-63
2022/07/09 10:44:28;;;;;;;2.67;2.47;;;;;;;;;;4955181;29;20445;-63
2022/07/09 10:46:57;;;;;;;4.80;4.50;;;;;;;;;;4954566;29;20438;-64
2022/07/09 10:49:24;;;;;;;2.97;2.53;;;;;;;;;;4955283;29;20450;-63
2022/07/09 10:51:56;;;;;;;3.10;2.30;;;;;;;;;;4957967;29;20941;-63
2022/07/09 10:54:23;;;;;;;2.83;2.57;;;;;;;;;;4958611;29;20489;-64
2022/07/09 10:56:52;;;;;;;3.13;2.93;;;;;;;;;;4958128;29;20461;-63
2022/07/09 10:59:19;;;;;;;5.23;2.50;;;;;;;;;;4958907;29;20851;-63
2022/07/09 11:01:47;;;;;;;4.23;3.03;;;;;;;;;;4958457;29;20481;-64
2022/07/09 11:04:24;;;;;;;2.83;2.57;;;;;;;;;;4958449;29;20568;-64
2022/07/09 11:06:51;;;;;;;2.77;2.57;;;;;;;;;;4958773;29;20552;-64
2022/07/09 11:09:18;;;;;;;3.03;2.73;;;;;;;;;;4958180;29;20489;-64
2022/07/09 11:11:47;;;;;;;6.70;3.00;;;;;;;;;;4958490;29;20804;-64
2022/07/09 11:14:16;;;;;;;3.90;2.80;;;;;;;;;;4958031;29;20510;-64
2022/07/09 11:16:43;;;;;;;3.63;2.63;;;;;;;;;;4958354;29;20454;-63
2022/07/09 11:19:16;;;;;;;3.37;3.07;;;;;;;;;;4957964;29;20958;-64
2022/07/09 11:21:44;;;;;;;4.70;2.97;;;;;;;;;;4958257;29;20780;-64
2022/07/09 11:24:15;;;;;;;2.43;2.33;;;;;;;;;;4957804;29;20459;-64
2022/07/09 11:26:42;;;;;;;3.47;3.00;;;;;;;;;;4957884;29;20831;-64
2022/07/09 11:29:09;;;;;;;3.83;2.77;;;;;;;;;;4958020;29;20456;-64
2022/07/09 11:31:38;;;;;;;2.93;2.70;;;;;;;;;;4957719;29;20462;-64
2022/07/09 11:34:14;;;;;;;5.80;3.20;;;;;;;;;;4957902;29;20478;-64
2022/07/09 11:36:42;;;;;;;5.77;3.50;;;;;;;;;;4958613;29;20449;-64
2022/07/09 11:39:09;;;;;;;3.23;2.93;;;;;;;;;;4957983;29;20446;-64
2022/07/09 11:41:43;;;;;;;6.57;3.57;;;;;;;;;;4958160;29;20620;-64
2022/07/09 11:44:11;;;;;;;3.03;2.80;;;;;;;;;;4957336;29;20442;-64
2022/07/09 11:46:40;;;;;;;4.63;2.70;;;;;;;;;;4957590;29;20481;-64
2022/07/09 11:49:16;;;;;;;4.50;2.90;;;;;;;;;;4957839;29;20503;-63
2022/07/09 11:51:44;;;;;;;3.73;3.20;;;;;;;;;;4957925;29;20501;-64
2022/07/09 11:54:11;;;;;;;3.30;3.00;;;;;;;;;;4957365;29;20481;-64
2022/07/09 11:56:43;;;;;;;3.63;3.27;;;;;;;;;;4957179;29;20448;-63
2022/07/09 11:59:10;;;;;;;4.10;3.33;;;;;;;;;;4957467;29;20504;-63
2022/07/09 12:01:38;;;;;;;3.50;3.20;;;;;;;;;;4956486;28;20450;-63
2022/07/09 12:04:07;;;;;;;3.30;2.90;;;;;;;;;;4957368;29;20454;-63
2022/07/09 12:06:34;;;;;;;2.87;2.67;;;;;;;;;;4957681;29;20843;-63
2022/07/09 12:09:01;;;;;;;3.13;2.90;;;;;;;;;;4957020;29;20463;-63
2022/07/09 12:11:30;;;;;;;3.23;2.90;;;;;;;;;;4957477;29;20532;-63
2022/07/09 12:13:57;;;;;;;3.10;2.80;;;;;;;;;;4957175;29;20456;-64
2022/07/09 12:16:25;;;;;;;3.77;2.60;;;;;;;;;;4957331;29;20450;-63
2022/07/09 12:18:52;;;;;;;2.70;2.50;;;;;;;;;;4956814;29;20458;-64
2022/07/09 12:21:21;;;;;;;4.10;2.67;;;;;;;;;;4957330;29;20852;-64
2022/07/09 12:23:49;;;;;;;7.23;3.00;;;;;;;;;;4957326;29;20537;-63
2022/07/09 12:26:16;;;;;;;2.60;2.40;;;;;;;;;;4956636;29;20657;-64
2022/07/09 12:28:43;;;;;;;2.50;2.30;;;;;;;;;;4956995;29;20447;-63
2022/07/09 12:31:10;;;;;;;3.00;2.80;;;;;;;;;;4956998;29;20936;-64
2022/07/09 12:33:38;;;;;;;16.17;13.20;;;;;;;;;;4956869;29;20543;-64
2022/07/09 12:36:05;;;;;;;2.63;2.43;;;;;;;;;;4956531;29;20542;-64
2022/07/09 12:38:34;;;;;;;2.97;2.70;;;;;;;;;;4956864;29;20442;-64
2022/07/09 12:41:01;;;;;;;3.23;2.70;;;;;;;;;;4956884;29;20808;-64
2022/07/09 12:43:28;;;;;;;2.80;2.60;;;;;;;;;;4956400;29;20454;-64
2022/07/09 12:45:55;;;;;;;14.13;11.70;;;;;;;;;;4956615;29;20570;-64
2022/07/09 12:48:23;;;;;;;6.80;2.67;;;;;;;;;;4956502;29;20502;-64
2022/07/09 12:50:50;;;;;;;4.67;3.73;;;;;;;;;;4956326;29;20450;-63
2022/07/09 12:53:17;;;;;;;8.60;4.10;;;;;;;;;;4956229;29;20538;-63
2022/07/09 12:55:46;;;;;;;3.70;3.40;;;;;;;;;;4956113;29;20482;-63
2022/07/09 12:58:13;;;;;;;4.97;3.90;;;;;;;;;;4956365;29;20449;-64
2022/07/09 13:00:41;;;;;;;6.33;4.23;;;;;;;;;;4956361;29;21012;-63
2022/07/09 13:03:09;;;;;;;3.53;2.03;;;;;;;;;;4956099;29;20482;-63
2022/07/09 13:05:36;;;;;;;2.30;2.10;;;;;;;;;;4956255;29;20483;-63
2022/07/09 13:08:03;;;;;;;2.00;1.80;;;;;;;;;;4955797;29;20968;-64
2022/07/09 13:10:30;;;;;;;1.80;1.70;;;;;;;;;;4956118;29;20451;-64
2022/07/09 13:12:59;;;;;;;2.13;2.03;;;;;;;;;;4956464;28;20463;-63
2022/07/09 13:15:26;;;;;;;2.00;1.90;;;;;;;;;;4955535;29;21011;-64
2022/07/09 13:17:54;;;;;;;2.50;1.80;;;;;;;;;;4956156;29;20456;-63
2022/07/09 13:20:21;;;;;;;2.30;2.10;;;;;;;;;;4955962;29;20930;-63
2022/07/09 13:22:48;;;;;;;2.17;1.70;;;;;;;;;;4955595;29;20452;-63
2022/07/09 13:25:16;;;;;;;1.63;1.53;;;;;;;;;;4955749;29;20456;-63
2022/07/09 13:27:43;;;;;;;2.60;1.63;;;;;;;;;;4955367;29;20461;-64
2022/07/09 13:30:13;;;;;;;11.30;2.27;;;;;;;;;;4955524;29;20448;-64
2022/07/09 13:32:40;;;;;;;5.20;1.83;;;;;;;;;;4955822;29;20514;-62
2022/07/09 13:35:08;;;;;;;1.37;1.27;;;;;;;;;;4956009;29;20451;-63
2022/07/09 13:37:35;;;;;;;2.00;1.90;;;;;;;;;;4956060;29;20448;-63
2022/07/09 13:40:02;;;;;;;1.60;1.50;;;;;;;;;;4955343;29;20955;-63
2022/07/09 13:42:29;;;;;;;2.10;1.80;;;;;;;;;;4955873;29;20452;-63
2022/07/09 13:44:57;;;;;;;2.70;1.63;;;;;;;;;;4955612;29;20448;-63
2022/07/09 13:47:25;;;;;;;3.10;1.40;;;;;;;;;;4955174;29;20480;-63
2022/07/09 13:49:52;;;;;;;1.50;1.40;;;;;;;;;;4955396;29;20466;-63
2022/07/09 13:52:19;;;;;;;2.90;1.57;;;;;;;;;;4955171;29;20463;-63
2022/07/09 13:54:47;;;;;;;5.10;2.00;;;;;;;;;;4955639;29;20827;-63
2022/07/09 13:57:14;;;;;;;2.40;1.70;;;;;;;;;;4955130;29;20453;-63
2022/07/09 13:59:41;;;;;;;1.60;1.50;;;;;;;;;;4955560;29;20879;-64
2022/07/09 14:02:08;;;;;;;1.80;1.70;;;;;;;;;;4955247;29;20524;-63
2022/07/09 14:04:37;;;;;;;3.17;1.67;;;;;;;;;;4955441;29;20531;-64
2022/07/09 14:07:04;;;;;;;1.77;1.50;;;;;;;;;;4955366;29;20525;-64
2022/07/09 14:09:32;;;;;;;3.83;1.60;;;;;;;;;;4955355;29;20455;-64
2022/07/09 14:11:59;;;;;;;1.83;1.60;;;;;;;;;;4955273;29;20996;-63
2022/07/09 14:14:26;;;;;;;2.57;1.93;;;;;;;;;;4955079;29;20450;-64
2022/07/09 14:16:53;;;;;;;2.43;1.77;;;;;;;;;;4955437;29;20453;-63
2022/07/09 14:19:21;;;;;;;2.10;1.90;;;;;;;;;;4954971;29;20533;-63
2022/07/09 14:21:49;;;;;;;2.30;1.90;;;;;;;;;;4955441;29;20450;-63
2022/07/09 14:24:17;;;;;;;3.97;1.57;;;;;;;;;;4955301;28;20906;-63
2022/07/09 14:26:45;;;;;;;2.87;2.00;;;;;;;;;;4958512;29;20488;-63
2022/07/09 14:29:12;;;;;;;3.27;1.50;;;;;;;;;;4959194;29;20455;-63
2022/07/09 14:31:39;;;;;;;3.10;1.70;;;;;;;;;;4959170;29;20454;-63
2022/07/09 14:34:07;;;;;;;1.93;1.60;;;;;;;;;;4957032;29;20451;-64
2022/07/09 14:36:34;;;;;;;1.83;1.40;;;;;;;;;;4958898;29;20462;-63
2022/07/09 14:39:03;;;;;;;1.60;1.50;;;;;;;;;;4958901;29;20513;-63
2022/07/09 14:41:30;;;;;;;2.47;1.80;;;;;;;;;;4958510;29;20948;-63